createdAt,value
2022-11-24T00:00:20.379Z,97405.24
2022-11-24T00:02:51.630Z,97404.71
2022-11-24T00:05:23.024Z,97406.57
2022-11-24T00:07:54.013Z,97408.98
2022-11-24T00:10:25.524Z,97412.89
2022-11-24T00:12:56.004Z,97413.40
2022-11-24T00:15:26.447Z,97415.11
2022-11-24T00:17:57.012Z,97417.67
2022-11-24T00:20:27.511Z,97419.02
2022-11-24T00:22:58.035Z,97423.84
2022-11-24T00:25:28.592Z,97420.73
2022-11-24T00:27:59.247Z,97425.86
2022-11-24T00:30:29.644Z,97419.44
2022-11-24T00:33:00.174Z,97419.73
2022-11-24T00:35:30.552Z,97423.30
2022-11-24T00:38:01.013Z,97424.65
2022-11-24T00:40:34.956Z,97429.64
2022-11-24T00:43:05.665Z,97430.52
2022-11-24T00:45:36.208Z,97434.14
2022-11-24T00:48:07.036Z,97438.27
2022-11-24T00:50:37.622Z,97436.36
2022-11-24T00:53:08.006Z,97446.84
2022-11-24T00:55:38.475Z,97448.52
2022-11-24T00:58:08.833Z,97448.34
2022-11-24T01:00:39.201Z,97447.51
2022-11-24T01:03:09.655Z,97453.17
2022-11-24T01:05:40.794Z,97460.05
2022-11-24T01:08:11.557Z,97463.46
2022-11-24T01:10:42.101Z,97462.59
2022-11-24T01:13:13.326Z,97466.91
2022-11-24T01:15:43.812Z,97469.84
2022-11-24T01:18:14.279Z,97471.02
2022-11-24T01:20:44.681Z,97476.32
2022-11-24T01:23:15.189Z,97479.23
2022-11-24T01:25:45.630Z,97479.74
2022-11-24T01:28:16.197Z,97483.02
2022-11-24T01:30:47.421Z,97485.13
2022-11-24T01:33:17.864Z,97484.66
2022-11-24T01:35:48.356Z,97485.73
2022-11-24T01:38:18.803Z,97486.76
2022-11-24T01:40:51.027Z,97485.21
2022-11-24T01:43:22.472Z,97488.63
2022-11-24T01:46:03.858Z,97491.02
2022-11-24T01:48:37.757Z,97493.23
2022-11-24T01:51:11.643Z,97493.91
2022-11-24T01:53:45.590Z,97492.70
2022-11-24T01:56:16.735Z,97500.91
2022-11-24T01:58:50.497Z,97498.64
2022-11-24T02:01:20.922Z,97499.94
2022-11-24T02:03:52.050Z,97502.45
2022-11-24T02:06:23.899Z,97503.79
2022-11-24T02:08:58.683Z,97505.48
2022-11-24T02:11:31.962Z,97504.98
2022-11-24T02:14:02.600Z,97504.09
2022-11-24T02:16:33.236Z,97497.20
2022-11-24T02:19:04.152Z,97495.48
2022-11-24T02:21:34.494Z,97494.48
2022-11-24T02:24:11.187Z,97492.34
2022-11-24T02:26:45.030Z,97494.29
2022-11-24T02:29:16.437Z,97501.52
2022-11-24T02:31:49.955Z,97507.17
2022-11-24T02:34:23.193Z,97505.46
2022-11-24T02:36:53.710Z,97506.36
2022-11-24T02:39:24.617Z,97507.07
2022-11-24T02:42:02.340Z,97502.30
2022-11-24T02:44:35.953Z,97504.27
2022-11-24T02:47:08.912Z,97505.30
2022-11-24T02:49:41.874Z,97505.83
2022-11-24T02:52:10.830Z,97507.02
2022-11-24T02:54:41.176Z,97508.58
2022-11-24T02:57:12.154Z,97511.83
2022-11-24T02:59:44.915Z,97510.27
2022-11-24T03:02:15.400Z,97512.35
2022-11-24T03:04:47.906Z,97510.34
2022-11-24T03:07:19.807Z,97507.99
2022-11-24T03:09:50.272Z,97515.77
2022-11-24T03:12:20.651Z,97514.61
2022-11-24T03:14:51.393Z,97512.92
2022-11-24T03:17:21.784Z,97510.20
2022-11-24T03:19:52.300Z,97513.64
2022-11-24T03:22:22.729Z,97515.91
2022-11-24T03:24:53.217Z,97511.30
2022-11-24T03:27:23.585Z,97511.32
2022-11-24T03:29:54.145Z,97512.48
2022-11-24T03:32:24.737Z,97510.73
2022-11-24T03:34:55.235Z,97511.18
2022-11-24T03:37:25.664Z,97506.15
2022-11-24T03:39:56.891Z,97503.20
2022-11-24T03:42:27.328Z,97500.80
2022-11-24T03:44:57.796Z,97505.79
2022-11-24T03:47:28.286Z,97502.34
2022-11-24T03:49:58.687Z,97500.82
2022-11-24T03:52:29.075Z,97499.82
2022-11-24T03:54:59.497Z,97514.30
2022-11-24T03:57:32.398Z,97518.64
2022-11-24T04:00:04.833Z,97517.30
2022-11-24T04:02:35.505Z,97527.95
2022-11-24T04:05:06.806Z,97532.44
2022-11-24T04:07:37.287Z,97539.63
2022-11-24T04:10:09.266Z,97542.84
2022-11-24T04:12:45.469Z,97547.56
2022-11-24T04:15:19.445Z,97545.40
2022-11-24T04:17:50.891Z,97532.60
2022-11-24T04:20:21.416Z,97537.14
2022-11-24T04:22:52.391Z,97541.87
2022-11-24T04:25:22.858Z,97545.23
2022-11-24T04:27:55.690Z,97548.75
2022-11-24T04:30:27.548Z,97555.01
2022-11-24T04:32:58.162Z,97552.66
2022-11-24T04:35:28.568Z,97559.27
2022-11-24T04:37:59.213Z,97559.71
2022-11-24T04:40:30.078Z,97558.60
2022-11-24T04:43:00.510Z,97564.73
2022-11-24T04:45:30.986Z,97564.70
2022-11-24T04:48:01.342Z,97571.67
2022-11-24T04:50:31.835Z,97573.84
2022-11-24T04:53:02.535Z,97578.08
2022-11-24T04:55:32.952Z,97582.51
2022-11-24T04:58:03.415Z,97583.53
2022-11-24T05:00:33.840Z,97583.70
2022-11-24T05:03:04.451Z,97584.56
2022-11-24T05:05:34.917Z,97586.11
2022-11-24T05:08:05.716Z,97591.08
2022-11-24T05:10:36.806Z,97586.42
2022-11-24T05:13:08.793Z,97592.08
2022-11-24T05:15:41.328Z,97594.48
2022-11-24T05:18:15.306Z,97589.65
2022-11-24T05:20:46.082Z,97591.73
2022-11-24T05:23:16.549Z,97595.54
2022-11-24T05:25:47.980Z,97599.88
2022-11-24T05:28:18.686Z,97605.02
2022-11-24T05:30:49.256Z,97611.40
2022-11-24T05:33:20.167Z,97620.52
2022-11-24T05:35:51.256Z,97616.56
2022-11-24T05:38:22.549Z,97615.17
2022-11-24T05:40:53.046Z,97619.14
2022-11-24T05:43:24.690Z,97622.90
2022-11-24T05:45:55.141Z,97621.70
2022-11-24T05:48:25.567Z,97626.66
2022-11-24T05:51:00.069Z,97632.48
2022-11-24T05:53:30.473Z,97630.91
2022-11-24T05:56:03.330Z,97629.35
2022-11-24T05:58:33.829Z,97635.02
2022-11-24T06:01:08.300Z,97633.30
2022-11-24T06:03:39.440Z,97635.89
2022-11-24T06:06:10.065Z,97635.36
2022-11-24T06:08:40.412Z,97635.49
2022-11-24T06:11:20.505Z,97634.65
2022-11-24T06:13:51.042Z,97637.54
2022-11-24T06:16:21.695Z,97637.55
2022-11-24T06:18:52.199Z,97639.27
2022-11-24T06:21:22.658Z,97639.25
2022-11-24T06:23:54.817Z,97644.21
2022-11-24T06:26:25.392Z,97646.24
2022-11-24T06:28:55.880Z,97649.68
2022-11-24T06:31:26.321Z,97648.98
2022-11-24T06:33:56.899Z,97650.19
2022-11-24T06:36:27.882Z,97654.65
2022-11-24T06:38:58.240Z,97660.63
2022-11-24T06:41:28.724Z,97662.84
2022-11-24T06:43:59.250Z,97662.83
2022-11-24T06:46:29.661Z,97665.91
2022-11-24T06:49:00.653Z,97662.98
2022-11-24T06:51:31.083Z,97667.06
2022-11-24T06:54:01.788Z,97666.54
2022-11-24T06:56:32.292Z,97671.16
2022-11-24T06:59:02.843Z,97667.53
2022-11-24T07:01:33.373Z,97670.11
2022-11-24T07:04:04.546Z,97669.09
2022-11-24T07:06:34.976Z,97674.08
2022-11-24T07:09:05.973Z,97672.70
2022-11-24T07:11:36.510Z,97677.69
2022-11-24T07:14:07.570Z,97684.55
2022-11-24T07:16:38.315Z,97687.65
2022-11-24T07:19:09.812Z,97688.66
2022-11-24T07:21:40.764Z,97691.73
2022-11-24T07:24:11.499Z,97691.73
2022-11-24T07:26:41.884Z,97693.29
2022-11-24T07:29:12.279Z,97699.84
2022-11-24T07:31:42.747Z,97702.24
2022-11-24T07:34:14.774Z,97707.91
2022-11-24T07:36:45.435Z,97709.96
2022-11-24T07:39:15.833Z,97711.84
2022-11-24T07:41:46.157Z,97712.70
2022-11-24T07:44:16.520Z,97717.52
2022-11-24T07:46:47.012Z,97720.60
2022-11-24T07:49:17.525Z,97721.62
2022-11-24T07:51:48.011Z,97721.25
2022-11-24T07:54:18.860Z,97720.90
2022-11-24T07:56:51.684Z,97722.94
2022-11-24T07:59:22.083Z,97729.62
2022-11-24T08:01:52.555Z,97736.65
2022-11-24T08:04:23.353Z,97742.67
2022-11-24T08:06:53.736Z,97740.80
2022-11-24T08:09:24.368Z,97747.67
2022-11-24T08:11:54.755Z,97748.17
2022-11-24T08:14:25.162Z,97746.95
2022-11-24T08:16:55.785Z,97748.83
2022-11-24T08:19:26.439Z,97750.54
2022-11-24T08:21:56.833Z,97751.39
2022-11-24T08:24:27.522Z,97755.83
2022-11-24T08:26:57.854Z,97758.73
2022-11-24T08:29:31.763Z,97761.58
2022-11-24T08:32:02.246Z,97765.52
2022-11-24T08:34:33.323Z,97767.89
2022-11-24T08:37:05.702Z,97773.67
2022-11-24T08:39:36.476Z,97781.21
2022-11-24T08:42:07.097Z,97784.98
2022-11-24T08:44:37.895Z,97785.30
2022-11-24T08:47:08.532Z,97776.88
2022-11-24T08:49:39.553Z,97773.70
2022-11-24T08:52:10.606Z,97773.90
2022-11-24T08:54:44.323Z,97787.09
2022-11-24T08:57:20.305Z,97788.94
2022-11-24T08:59:52.780Z,97791.44
2022-11-24T09:02:23.383Z,97797.11
2022-11-24T09:04:54.255Z,97801.65
2022-11-24T09:07:24.974Z,97807.91
2022-11-24T09:09:55.466Z,97805.06
2022-11-24T09:12:25.924Z,97811.55
2022-11-24T09:14:56.390Z,97807.36
2022-11-24T09:17:26.868Z,97805.43
2022-11-24T09:19:57.421Z,97804.16
2022-11-24T09:22:27.859Z,97811.42
2022-11-24T09:24:58.410Z,97813.89
2022-11-24T09:27:29.580Z,97813.08
2022-11-24T09:30:00.147Z,97817.61
2022-11-24T09:32:31.325Z,97818.99
2022-11-24T09:35:02.027Z,97815.36
2022-11-24T09:37:36.196Z,97821.55
2022-11-24T09:40:08.399Z,97826.26
2022-11-24T09:42:49.297Z,97831.20
2022-11-24T09:51:25.096Z,97830.16
2022-11-24T09:53:55.019Z,97833.60
2022-11-24T09:56:27.631Z,97838.41
2022-11-24T09:59:02.665Z,97839.49
2022-11-24T10:01:35.085Z,97841.86
2022-11-24T10:04:10.937Z,97844.40
2022-11-24T10:06:45.883Z,97851.41
2022-11-24T10:09:29.469Z,97855.14
2022-11-24T10:12:03.353Z,97860.30
2022-11-24T10:14:47.990Z,97860.54
2022-11-24T10:17:30.263Z,97858.35
2022-11-24T10:20:06.742Z,97866.64
2022-11-24T10:22:46.426Z,97869.14
2022-11-24T10:25:22.369Z,97868.69
2022-11-24T10:27:59.875Z,97868.96
2022-11-24T10:30:30.614Z,97872.23
2022-11-24T10:33:05.039Z,97876.59
2022-11-24T10:35:40.327Z,97877.23
2022-11-24T10:38:17.729Z,97882.12
2022-11-24T10:40:58.269Z,97885.69
2022-11-24T10:43:29.979Z,97882.87
2022-11-24T10:46:07.013Z,97881.52
2022-11-24T10:48:42.756Z,97886.05
2022-11-24T10:51:53.702Z,97885.56
2022-11-24T10:54:25.654Z,97887.51
2022-11-24T10:56:57.964Z,97892.20
2022-11-24T10:59:35.887Z,97889.73
2022-11-24T11:02:33.944Z,97896.55
2022-11-24T11:05:27.452Z,97896.42
2022-11-24T11:08:11.029Z,97890.27
2022-11-24T11:10:39.983Z,97888.20
2022-11-24T11:13:25.448Z,97891.08
2022-11-24T11:15:56.104Z,97899.12
2022-11-24T11:18:31.631Z,97898.82
2022-11-24T11:21:03.655Z,97898.13
2022-11-24T11:23:36.191Z,97896.27
2022-11-24T11:26:33.482Z,97900.89
2022-11-24T11:34:59.118Z,97902.77
2022-11-24T11:37:32.191Z,97908.82
2022-11-24T11:40:03.511Z,97904.18
2022-11-24T11:43:01.403Z,97914.21
2022-11-24T11:45:39.252Z,97915.06
2022-11-24T11:48:25.930Z,97923.15
2022-11-24T11:51:22.334Z,97926.41
2022-11-24T11:53:57.929Z,97924.70
2022-11-24T11:56:31.180Z,97924.94
2022-11-24T11:59:25.151Z,97919.49
2022-11-24T12:02:19.822Z,97924.45
2022-11-24T12:04:54.720Z,97925.08
2022-11-24T12:07:48.654Z,97922.30
2022-11-24T12:10:26.372Z,97922.81
2022-11-24T12:13:08.379Z,97926.41
2022-11-24T12:15:40.879Z,97931.02
2022-11-24T12:18:55.820Z,97931.38
2022-11-24T12:21:26.014Z,97931.40
2022-11-24T12:24:10.648Z,97932.86
2022-11-24T12:26:45.141Z,97936.70
2022-11-24T12:29:32.272Z,97939.73
2022-11-24T12:32:08.508Z,97943.19
2022-11-24T12:34:46.637Z,97943.91
2022-11-24T12:37:29.799Z,97946.60
2022-11-24T12:40:01.950Z,97942.33
2022-11-24T12:42:41.077Z,97943.86
2022-11-24T12:45:17.090Z,97945.02
2022-11-24T12:48:04.756Z,97946.60
2022-11-24T12:50:38.680Z,97947.48
2022-11-24T12:53:15.580Z,97950.45
2022-11-24T12:55:46.383Z,97955.20
2022-11-24T12:58:21.820Z,97955.92
2022-11-24T13:01:03.710Z,97955.96
2022-11-24T13:03:41.021Z,97954.83
2022-11-24T13:06:16.515Z,97961.39
2022-11-24T13:08:47.147Z,97962.14
2022-11-24T13:11:43.997Z,97960.81
2022-11-24T13:14:30.019Z,97965.70
2022-11-24T13:19:52.317Z,97962.30
2022-11-24T13:22:27.148Z,97966.05
2022-11-24T13:25:16.269Z,97967.64
2022-11-24T13:27:52.837Z,97978.14
2022-11-24T13:30:59.203Z,97981.00
2022-11-24T13:33:34.851Z,97985.92
2022-11-24T13:36:31.835Z,97990.41
2022-11-24T13:39:03.356Z,97992.80
2022-11-24T13:42:08.541Z,97997.68
2022-11-24T13:44:52.547Z,97995.50
2022-11-24T13:47:39.504Z,97998.50
2022-11-24T13:50:14.143Z,97995.90
2022-11-24T13:52:50.843Z,97998.13
2022-11-24T13:55:31.201Z,97998.02
2022-11-24T13:58:06.088Z,97997.33
2022-11-24T14:00:38.094Z,97995.83
2022-11-24T14:03:15.580Z,97996.48
2022-11-24T14:05:53.951Z,97991.34
2022-11-24T14:08:27.459Z,97990.09
2022-11-24T14:10:59.262Z,97986.48
2022-11-24T14:13:31.221Z,97987.38
2022-11-24T14:16:07.096Z,97990.55
2022-11-24T14:18:39.179Z,97994.46
2022-11-24T14:21:24.995Z,97995.95
2022-11-24T14:23:57.262Z,98004.33
2022-11-24T14:26:32.529Z,98008.86
2022-11-24T14:29:08.707Z,98008.54
2022-11-24T14:31:39.304Z,98007.83
2022-11-24T14:34:21.161Z,98007.77
2022-11-24T14:36:52.243Z,98007.61
2022-11-24T14:39:26.937Z,98004.73
2022-11-24T14:42:01.594Z,98006.84
2022-11-24T14:44:35.843Z,98002.98
2022-11-24T14:47:14.199Z,98006.16
2022-11-24T14:49:46.455Z,98010.17
2022-11-24T14:52:19.010Z,98009.69
2022-11-24T14:54:51.516Z,98007.49
2022-11-24T14:57:28.644Z,98006.65
2022-11-24T15:00:19.288Z,98008.93
2022-11-24T15:02:54.012Z,98012.64
2022-11-24T15:05:25.783Z,98009.41
2022-11-24T15:08:03.943Z,98013.56
2022-11-24T15:10:36.844Z,98014.58
2022-11-24T15:13:16.694Z,98017.66
2022-11-24T15:15:49.775Z,98018.15
2022-11-24T15:18:26.737Z,98024.85
2022-11-24T15:20:58.711Z,98024.86
2022-11-24T15:23:31.511Z,98029.34
2022-11-24T15:26:36.707Z,98035.21
2022-11-24T15:29:10.580Z,98031.75
2022-11-24T15:31:41.600Z,98035.14
2022-11-24T15:34:18.303Z,98034.90
2022-11-24T15:36:48.698Z,98031.76
2022-11-24T15:39:28.161Z,98035.13
2022-11-24T15:42:05.847Z,98047.10
2022-11-24T15:44:37.039Z,98050.09
2022-11-24T15:47:07.786Z,98057.54
2022-11-24T15:49:38.323Z,98055.52
2022-11-24T15:52:08.794Z,98061.42
2022-11-24T15:54:39.370Z,98062.16
2022-11-24T15:57:12.784Z,98063.94
2022-11-24T15:59:43.213Z,98064.67
2022-11-24T16:02:13.984Z,98069.17
2022-11-24T16:04:44.490Z,98071.26
2022-11-24T16:07:16.979Z,98071.48
2022-11-24T16:09:47.612Z,98071.50
2022-11-24T16:12:19.633Z,98072.40
2022-11-24T16:14:50.137Z,98072.77
2022-11-24T16:17:22.085Z,98076.56
2022-11-24T16:20:00.117Z,98080.02
2022-11-24T16:22:31.459Z,98079.69
2022-11-24T16:25:02.835Z,98079.19
2022-11-24T16:27:33.429Z,98081.27
2022-11-24T16:30:05.563Z,98084.02
2022-11-24T16:32:36.197Z,98088.84
2022-11-24T16:35:07.430Z,98090.05
2022-11-24T16:37:39.868Z,98089.54
2022-11-24T16:40:12.132Z,98090.91
2022-11-24T16:42:46.580Z,98090.22
2022-11-24T16:45:17.957Z,98088.86
2022-11-24T16:47:48.405Z,98091.44
2022-11-24T16:50:19.205Z,98089.55
2022-11-24T16:53:15.387Z,98092.98
2022-11-24T16:55:45.739Z,98096.92
2022-11-24T16:58:18.613Z,98097.63
2022-11-24T17:00:49.026Z,98101.39
2022-11-24T17:03:20.108Z,98104.31
2022-11-24T17:05:59.789Z,98105.01
2022-11-24T17:08:32.911Z,98106.89
2022-11-24T17:11:08.964Z,98105.52
2022-11-24T17:13:39.677Z,98108.09
2022-11-24T17:16:11.901Z,98107.41
2022-11-24T17:18:42.974Z,98106.39
2022-11-24T17:21:19.882Z,98108.95
2022-11-24T17:23:53.464Z,98111.69
2022-11-24T17:26:24.980Z,98114.10
2022-11-24T17:28:55.897Z,98111.87
2022-11-24T17:31:29.251Z,98111.69
2022-11-24T17:34:01.120Z,98113.58
2022-11-24T17:36:33.514Z,98116.66
2022-11-24T17:39:06.410Z,98120.08
2022-11-24T17:41:37.005Z,98121.80
2022-11-24T17:44:11.406Z,98123.00
2022-11-24T17:46:41.999Z,98130.20
2022-11-24T17:49:15.404Z,98136.02
2022-11-24T17:51:50.306Z,98132.94
2022-11-24T17:57:11.279Z,98131.05
2022-11-24T17:59:41.898Z,98133.27
2022-11-24T18:02:12.689Z,98128.80
2022-11-24T18:04:43.909Z,98133.27
2022-11-24T18:07:14.415Z,98133.94
2022-11-24T18:09:45.026Z,98133.25
2022-11-24T18:12:15.415Z,98134.11
2022-11-24T18:14:47.039Z,98131.52
2022-11-24T18:17:17.460Z,98131.54
2022-11-24T18:19:47.980Z,98134.96
2022-11-24T18:22:20.976Z,98140.09
2022-11-24T18:24:57.641Z,98145.23
2022-11-24T18:27:31.930Z,98141.82
2022-11-24T18:30:02.661Z,98149.55
2022-11-24T18:32:34.289Z,98153.00
2022-11-24T18:35:04.934Z,98150.45
2022-11-24T18:37:39.895Z,98150.29
2022-11-24T18:40:16.015Z,98140.17
2022-11-24T18:42:46.484Z,98143.59
2022-11-24T18:45:21.044Z,98142.90
2022-11-24T18:47:51.493Z,98138.94
2022-11-24T18:50:23.056Z,98136.19
2022-11-24T18:52:55.304Z,98135.31
2022-11-24T18:55:26.330Z,98137.53
2022-11-24T18:57:57.415Z,98135.95
2022-11-24T19:00:28.019Z,98135.59
2022-11-24T19:03:00.385Z,98135.03
2022-11-24T19:05:32.085Z,98134.85
2022-11-24T19:08:04.694Z,98133.64
2022-11-24T19:10:39.322Z,98133.84
2022-11-24T19:13:12.935Z,98133.86
2022-11-24T19:15:44.180Z,98135.42
2022-11-24T19:18:16.463Z,98129.59
2022-11-24T19:20:49.210Z,98127.71
2022-11-24T19:23:21.434Z,98125.34
2022-11-24T19:25:53.344Z,98124.67
2022-11-24T19:28:25.692Z,98124.16
2022-11-24T19:31:00.998Z,98128.30
2022-11-24T19:33:33.748Z,98136.54
2022-11-24T19:36:11.834Z,98128.13
2022-11-24T19:38:44.291Z,98126.59
2022-11-24T19:41:17.322Z,98126.60
2022-11-24T19:43:47.317Z,98128.48
2022-11-24T19:46:21.224Z,98129.70
2022-11-24T19:48:56.142Z,98128.84
2022-11-24T19:51:31.177Z,98124.56
2022-11-24T19:54:04.341Z,98128.84
2022-11-24T19:56:41.245Z,98134.00
2022-11-24T20:09:20.065Z,98133.98
2022-11-24T20:11:50.578Z,98135.54
2022-11-24T20:14:22.524Z,98132.96
2022-11-24T20:16:53.071Z,98141.71
2022-11-24T20:19:23.625Z,98142.57
2022-11-24T20:21:55.384Z,98143.59
2022-11-24T20:24:26.115Z,98144.97
2022-11-24T20:27:00.114Z,98147.88
2022-11-24T20:29:33.661Z,98142.40
2022-11-24T20:32:04.140Z,98140.69
2022-11-24T20:34:37.413Z,98142.92
2022-11-24T20:37:13.229Z,98144.61
2022-11-24T20:39:43.611Z,98148.73
2022-11-24T20:42:14.274Z,98149.08
2022-11-24T20:44:44.749Z,98148.89
2022-11-24T20:47:15.187Z,98149.39
2022-11-24T20:49:45.772Z,98144.73
2022-11-24T20:52:17.281Z,98142.48
2022-11-24T20:54:47.752Z,98138.67
2022-11-24T20:57:18.383Z,98136.23
2022-11-24T20:59:49.510Z,98133.98
2022-11-24T21:02:21.067Z,98135.85
2022-11-24T21:04:51.608Z,98135.84
2022-11-24T21:07:22.218Z,98131.71
2022-11-24T21:09:52.934Z,98132.38
2022-11-24T21:12:23.714Z,98136.84
2022-11-24T21:14:54.270Z,98137.69
2022-11-24T21:17:24.739Z,98139.73
2022-11-24T21:19:59.670Z,98142.80
2022-11-24T21:22:31.603Z,98145.52
2022-11-24T21:25:02.086Z,98146.69
2022-11-24T21:27:32.599Z,98148.56
2022-11-24T21:30:03.289Z,98146.33
2022-11-24T21:32:33.923Z,98151.50
2022-11-24T21:35:04.506Z,98153.76
2022-11-24T21:37:34.941Z,98156.17
2022-11-24T21:40:06.561Z,98153.58
2022-11-24T21:42:37.208Z,98156.13
2022-11-24T21:45:11.488Z,98150.27
2022-11-24T21:47:42.482Z,98155.92
2022-11-24T21:50:13.755Z,98160.21
2022-11-24T21:52:44.307Z,98162.41
2022-11-24T21:55:14.780Z,98163.06
2022-11-24T21:57:45.188Z,98158.41
2022-11-24T22:00:17.977Z,98157.69
2022-11-24T22:02:50.382Z,98155.62
2022-11-24T22:05:20.967Z,98152.69
2022-11-24T22:07:51.505Z,98148.76
2022-11-24T22:10:22.004Z,98151.89
2022-11-24T22:12:52.543Z,98146.91
2022-11-24T22:15:22.992Z,98147.77
2022-11-24T22:17:53.405Z,98142.80
2022-11-24T22:20:23.942Z,98142.66
2022-11-24T22:22:54.890Z,98143.39
2022-11-24T22:25:25.334Z,98141.39
2022-11-24T22:27:56.784Z,98136.98
2022-11-24T22:30:27.305Z,98133.94
2022-11-24T22:32:57.983Z,98135.89
2022-11-24T22:35:28.522Z,98138.86
2022-11-24T22:37:58.946Z,98136.84
2022-11-24T22:40:29.504Z,98134.29
2022-11-24T22:43:00.289Z,98128.82
2022-11-24T22:45:30.772Z,98128.14
2022-11-24T22:48:01.276Z,98130.71
2022-11-24T22:50:31.718Z,98130.56
2022-11-24T22:57:34.640Z,98135.20
2022-11-24T23:00:05.808Z,98138.28
2022-11-24T23:02:36.293Z,98141.55
2022-11-24T23:05:07.656Z,98142.39
2022-11-24T23:07:38.325Z,98143.75
2022-11-24T23:10:10.640Z,98143.40
2022-11-24T23:12:41.154Z,98145.11
2022-11-24T23:15:12.436Z,98143.55
2022-11-24T23:17:42.941Z,98142.67
2022-11-24T23:20:16.313Z,98143.19
2022-11-24T23:22:46.930Z,98145.39
2022-11-24T23:25:17.741Z,98146.23
2022-11-24T23:27:48.237Z,98148.78
2022-11-24T23:30:19.265Z,98145.86
2022-11-24T23:32:49.754Z,98150.82
2022-11-24T23:35:23.679Z,98149.43
2022-11-24T23:38:08.263Z,98150.60
2022-11-24T23:40:38.814Z,98152.31
2022-11-24T23:43:09.282Z,98155.88
2022-11-24T23:45:39.876Z,98155.70
2022-11-24T23:48:10.286Z,98156.39
2022-11-24T23:50:40.763Z,98154.67
2022-11-24T23:53:11.263Z,98151.75
2022-11-24T23:55:41.906Z,98147.47
2022-11-24T23:58:12.504Z,98143.51
